Effingham, Illinois
Current Conditions -  °F | °C
As of 6:15 AM on Tuesday 27 Jan 2015 (Local Time) from K1H2 Reporting Station
Overcast Overcast  
Wind Chill: 26°   Ceiling: 1000
Heat Index: 33°   Visibility: 7mi
Dew Point: 29°   Wind: 9mph
Humidity: 85%   Direction: 320°NW
Pressure: 30.02"   Gusts: 16mph
Location:  39.12°N, 88.54°W
Report Text: K1H2 271215Z AUTO 32008G14KT 7SM OVC010 01/M01 A3002 RMK AO2 T00081015
Loading
Personal Weather Stations






























Interactive Weather Map New forecast layout! Learn more

10-Day Weather Forecast

Advertisements
Track Severe Weather on mobile